createdAt,value
2018-09-04T00:00:56.083Z,100.0
2018-09-04T00:01:57.544Z,100.0
2018-09-04T00:02:59.033Z,100.0
2018-09-04T00:04:00.627Z,100.0
2018-09-04T00:05:02.079Z,100.0
2018-09-04T00:06:03.510Z,100.0
2018-09-04T00:07:05.142Z,100.0
2018-09-04T00:08:06.572Z,100.0
2018-09-04T00:09:08.280Z,100.0
2018-09-04T00:10:09.722Z,100.0
2018-09-04T00:11:11.337Z,100.0
2018-09-04T00:12:13.117Z,100.0
2018-09-04T00:13:14.534Z,100.0
2018-09-04T00:14:16.259Z,100.0
2018-09-04T00:15:17.750Z,100.0
2018-09-04T00:16:19.169Z,100.0
2018-09-04T00:17:20.752Z,100.0
2018-09-04T00:18:22.200Z,100.0
2018-09-04T00:19:23.865Z,100.0
2018-09-04T00:20:25.329Z,100.0
2018-09-04T00:21:26.950Z,100.0
2018-09-04T00:22:28.410Z,100.0
2018-09-04T00:23:29.865Z,100.0
2018-09-04T00:24:31.488Z,100.0
2018-09-04T00:25:33.266Z,100.0
2018-09-04T00:26:34.708Z,100.0
2018-09-04T00:27:36.454Z,100.0
2018-09-04T00:28:37.953Z,100.0
2018-09-04T00:29:39.403Z,100.0
2018-09-04T00:30:40.961Z,100.0
2018-09-04T00:31:42.404Z,100.0
2018-09-04T00:32:43.938Z,100.0
2018-09-04T00:33:45.860Z,100.0
2018-09-04T00:34:47.344Z,100.0
2018-09-04T00:35:48.937Z,100.0
2018-09-04T00:36:50.933Z,100.0
2018-09-04T00:37:52.787Z,100.0
2018-09-04T00:38:54.491Z,100.0
2018-09-04T00:39:55.973Z,100.0
2018-09-04T00:40:57.623Z,100.0
2018-09-04T00:41:59.101Z,100.0
2018-09-04T00:43:00.717Z,100.0
2018-09-04T00:44:02.166Z,100.0
2018-09-04T00:45:03.809Z,100.0
2018-09-04T00:46:05.368Z,100.0
2018-09-04T00:47:06.849Z,100.0
2018-09-04T00:48:08.521Z,100.0
2018-09-04T00:49:10.018Z,100.0
2018-09-04T00:50:11.561Z,100.0
2018-09-04T00:51:13.309Z,100.0
2018-09-04T00:52:14.797Z,100.0
2018-09-04T00:53:16.371Z,100.0
2018-09-04T00:54:18.008Z,100.0
2018-09-04T00:55:19.501Z,100.0
2018-09-04T00:56:21.047Z,100.0
2018-09-04T00:57:22.504Z,100.0
2018-09-04T00:58:23.946Z,100.0
2018-09-04T00:59:25.589Z,100.0
2018-09-04T01:00:27.016Z,100.0
2018-09-04T01:01:28.479Z,100.0
2018-09-04T01:02:30.076Z,100.0
2018-09-04T01:03:31.538Z,100.0
2018-09-04T01:04:32.994Z,100.0
2018-09-04T01:05:34.625Z,100.0
2018-09-04T01:06:36.098Z,100.0
2018-09-04T01:07:37.546Z,100.0
2018-09-04T01:08:39.175Z,100.0
2018-09-04T01:09:40.646Z,100.0
2018-09-04T01:10:42.111Z,100.0
2018-09-04T01:11:43.657Z,100.0
2018-09-04T01:12:45.105Z,100.0
2018-09-04T01:13:46.570Z,100.0
2018-09-04T01:14:48.188Z,100.0
2018-09-04T01:15:49.609Z,100.0
2018-09-04T01:16:51.044Z,100.0
2018-09-04T01:17:52.707Z,100.0
2018-09-04T01:18:54.144Z,100.0
2018-09-04T01:19:55.805Z,100.0
2018-09-04T01:20:57.231Z,100.0
2018-09-04T01:21:58.867Z,100.0
2018-09-04T01:23:00.294Z,100.0
2018-09-04T01:24:01.754Z,100.0
2018-09-04T01:25:03.615Z,100.0
2018-09-04T01:26:05.070Z,100.0
2018-09-04T01:27:06.535Z,100.0
2018-09-04T01:28:08.154Z,100.0
2018-09-04T01:29:09.616Z,100.0
2018-09-04T01:30:11.059Z,100.0
2018-09-04T01:31:13.054Z,100.0
2018-09-04T01:32:14.486Z,100.0
2018-09-04T01:33:15.927Z,100.0
2018-09-04T01:34:17.613Z,100.0
2018-09-04T01:35:19.074Z,100.0
2018-09-04T01:36:20.697Z,100.0
2018-09-04T01:37:22.143Z,100.0
2018-09-04T01:38:23.785Z,100.0
2018-09-04T01:39:25.218Z,100.0
2018-09-04T01:40:26.862Z,100.0
2018-09-04T01:41:28.309Z,100.0
2018-09-04T01:42:29.962Z,100.0
2018-09-04T01:43:31.405Z,100.0
2018-09-04T01:44:33.036Z,100.0
2018-09-04T01:45:34.519Z,100.0
2018-09-04T01:46:36.113Z,100.0
2018-09-04T01:47:37.553Z,100.0
2018-09-04T01:48:39.211Z,100.0
2018-09-04T01:49:40.673Z,100.0
2018-09-04T01:50:42.282Z,100.0
2018-09-04T01:51:43.708Z,100.0
2018-09-04T01:52:45.354Z,100.0
2018-09-04T01:53:46.803Z,100.0
2018-09-04T01:54:48.425Z,100.0
2018-09-04T01:55:49.857Z,100.0
2018-09-04T01:56:51.532Z,100.0
2018-09-04T01:57:52.973Z,100.0
2018-09-04T01:58:54.439Z,100.0
2018-09-04T01:59:56.081Z,100.0
2018-09-04T02:00:57.511Z,100.0
2018-09-04T02:01:58.941Z,100.0
2018-09-04T02:03:00.580Z,100.0
2018-09-04T02:04:02.034Z,100.0
2018-09-04T02:05:03.664Z,100.0
2018-09-04T02:06:05.096Z,100.0
2018-09-04T02:07:06.785Z,100.0
2018-09-04T02:08:08.201Z,100.0
2018-09-04T02:09:09.661Z,100.0
2018-09-04T02:10:11.317Z,100.0
2018-09-04T02:11:12.752Z,100.0
2018-09-04T02:12:14.233Z,100.0
2018-09-04T02:13:15.846Z,100.0
2018-09-04T02:14:17.301Z,100.0
2018-09-04T02:15:18.743Z,100.0
2018-09-04T02:16:20.342Z,100.0
2018-09-04T02:17:21.792Z,100.0
2018-09-04T02:18:23.235Z,100.0
2018-09-04T02:19:24.928Z,100.0
2018-09-04T02:20:26.359Z,100.0
2018-09-04T02:21:27.959Z,100.0
2018-09-04T02:22:29.442Z,100.0
2018-09-04T02:23:31.080Z,100.0
2018-09-04T02:24:32.522Z,100.0
2018-09-04T02:25:34.150Z,100.0
2018-09-04T02:26:35.604Z,100.0
2018-09-04T02:27:37.278Z,100.0
2018-09-04T02:28:38.737Z,100.0
2018-09-04T02:29:40.333Z,100.0
2018-09-04T02:30:42.192Z,100.0
2018-09-04T02:31:43.907Z,100.0
2018-09-04T02:32:45.453Z,100.0
2018-09-04T02:33:47.159Z,100.0
2018-09-04T02:34:48.596Z,100.0
2018-09-04T02:35:50.159Z,100.0
2018-09-04T02:36:51.678Z,100.0
2018-09-04T02:37:53.095Z,100.0
2018-09-04T02:38:54.685Z,100.0
2018-09-04T02:39:56.152Z,100.0
2018-09-04T02:40:57.664Z,100.0
2018-09-04T02:41:59.229Z,100.0
2018-09-04T02:43:00.646Z,100.0
2018-09-04T02:44:02.091Z,100.0
2018-09-04T02:45:03.757Z,100.0
2018-09-04T02:46:05.179Z,100.0
2018-09-04T02:47:06.651Z,100.0
2018-09-04T02:48:08.336Z,100.0
2018-09-04T02:49:09.863Z,100.0
2018-09-04T02:50:11.435Z,100.0
2018-09-04T02:51:12.892Z,100.0
2018-09-04T02:52:14.483Z,100.0
2018-09-04T02:53:15.912Z,100.0
2018-09-04T02:54:17.347Z,100.0
2018-09-04T02:55:19.034Z,100.0
2018-09-04T02:56:20.497Z,100.0
2018-09-04T02:57:22.054Z,100.0
2018-09-04T02:58:23.753Z,100.0
2018-09-04T02:59:25.254Z,100.0
2018-09-04T03:00:26.846Z,100.0
2018-09-04T03:01:28.376Z,100.0
2018-09-04T03:02:30.001Z,100.0
2018-09-04T03:03:31.495Z,100.0
2018-09-04T03:04:32.973Z,100.0
2018-09-04T03:05:34.467Z,100.0
2018-09-04T03:06:36.089Z,100.0
2018-09-04T03:07:37.571Z,100.0
2018-09-04T03:08:39.193Z,100.0
2018-09-04T03:09:40.625Z,100.0
2018-09-04T03:10:42.262Z,100.0
2018-09-04T03:11:43.709Z,100.0
2018-09-04T03:12:45.742Z,100.0
2018-09-04T03:13:47.243Z,100.0
2018-09-04T03:14:48.829Z,100.0
2018-09-04T03:15:50.297Z,100.0
2018-09-04T03:16:51.898Z,100.0
2018-09-04T03:17:53.373Z,100.0
2018-09-04T03:18:54.982Z,100.0
2018-09-04T03:19:56.422Z,100.0
2018-09-04T03:20:58.069Z,100.0
2018-09-04T03:21:59.502Z,100.0
2018-09-04T03:23:01.185Z,100.0
2018-09-04T03:24:02.656Z,100.0
2018-09-04T03:25:04.235Z,100.0
2018-09-04T03:26:05.657Z,100.0
2018-09-04T03:27:07.333Z,100.0
2018-09-04T03:28:08.767Z,100.0
2018-09-04T03:29:10.258Z,100.0
2018-09-04T03:30:11.919Z,100.0
2018-09-04T03:31:13.468Z,100.0
2018-09-04T03:32:14.916Z,100.0
2018-09-04T03:33:16.587Z,100.0
2018-09-04T03:34:18.018Z,100.0
2018-09-04T03:35:19.548Z,100.0
2018-09-04T03:36:21.120Z,100.0
2018-09-04T03:37:22.546Z,100.0
2018-09-04T03:38:24.169Z,100.0
2018-09-04T03:39:25.579Z,100.0
2018-09-04T03:40:26.981Z,100.0
2018-09-04T03:41:28.477Z,100.0
2018-09-04T03:42:29.948Z,100.0
2018-09-04T03:43:31.301Z,100.0
2018-09-04T03:44:32.855Z,100.0
2018-09-04T03:45:34.326Z,100.0
2018-09-04T03:46:36.000Z,100.0
2018-09-04T03:47:37.517Z,100.0
2018-09-04T03:48:39.244Z,100.0
2018-09-04T03:49:40.707Z,100.0
2018-09-04T03:50:42.344Z,100.0
2018-09-04T03:51:43.861Z,100.0
2018-09-04T03:52:45.434Z,100.0
2018-09-04T03:53:46.930Z,100.0
2018-09-04T03:54:48.486Z,100.0
2018-09-04T03:55:50.015Z,100.0
2018-09-04T03:56:51.564Z,100.0
2018-09-04T03:57:53.443Z,100.0
2018-09-04T03:58:55.072Z,100.0
2018-09-04T03:59:56.530Z,100.0
2018-09-04T04:00:58.166Z,100.0
2018-09-04T04:01:59.621Z,100.0
2018-09-04T04:03:01.200Z,100.0
2018-09-04T04:04:02.676Z,100.0
2018-09-04T04:05:04.122Z,100.0
2018-09-04T04:06:05.748Z,100.0
2018-09-04T04:07:07.209Z,100.0
2018-09-04T04:08:08.615Z,100.0
2018-09-04T04:09:10.255Z,100.0
2018-09-04T04:10:11.686Z,100.0
2018-09-04T04:11:13.370Z,100.0
2018-09-04T04:12:14.809Z,100.0
2018-09-04T04:13:16.411Z,100.0
2018-09-04T04:14:17.831Z,100.0
2018-09-04T04:15:19.258Z,100.0
2018-09-04T04:16:21.148Z,100.0
2018-09-04T04:17:22.659Z,100.0
2018-09-04T04:18:24.151Z,100.0
2018-09-04T04:19:25.748Z,100.0
2018-09-04T04:20:27.188Z,100.0
2018-09-04T04:21:28.620Z,100.0
2018-09-04T04:22:30.201Z,100.0
2018-09-04T04:23:31.679Z,100.0
2018-09-04T04:24:33.171Z,100.0
2018-09-04T04:25:34.799Z,100.0
2018-09-04T04:26:36.369Z,100.0
2018-09-04T04:27:38.438Z,100.0
2018-09-04T04:28:39.897Z,100.0
2018-09-04T04:29:41.517Z,100.0
2018-09-04T04:30:42.952Z,100.0
2018-09-04T04:31:44.663Z,100.0
2018-09-04T04:32:46.111Z,100.0
2018-09-04T04:33:47.759Z,100.0
2018-09-04T04:34:49.218Z,100.0
2018-09-04T04:35:50.814Z,100.0
2018-09-04T04:36:52.278Z,100.0
2018-09-04T04:37:53.909Z,100.0
2018-09-04T04:38:55.507Z,100.0
2018-09-04T04:39:56.973Z,100.0
2018-09-04T04:40:58.449Z,100.0
2018-09-04T04:41:59.951Z,100.0
2018-09-04T04:43:01.438Z,100.0
2018-09-04T04:44:02.944Z,100.0
2018-09-04T04:45:04.449Z,100.0
2018-09-04T04:46:05.981Z,100.0
2018-09-04T04:47:07.712Z,100.0
2018-09-04T04:48:09.214Z,100.0
2018-09-04T04:49:10.764Z,100.0
2018-09-04T04:50:12.233Z,100.0
2018-09-04T04:51:13.842Z,100.0
2018-09-04T04:52:15.333Z,100.0
2018-09-04T04:53:16.930Z,100.0
2018-09-04T04:54:18.440Z,100.0
2018-09-04T04:55:19.893Z,100.0
2018-09-04T04:56:21.495Z,100.0
2018-09-04T04:57:22.958Z,100.0
2018-09-04T04:58:24.405Z,100.0
2018-09-04T04:59:26.418Z,100.0
2018-09-04T05:00:28.098Z,100.0
2018-09-04T05:01:29.567Z,100.0
2018-09-04T05:02:31.165Z,100.0
2018-09-04T05:03:32.656Z,100.0
2018-09-04T05:04:34.303Z,100.0
2018-09-04T05:05:35.810Z,100.0
2018-09-04T05:06:37.317Z,100.0
2018-09-04T05:07:38.783Z,100.0
2018-09-04T05:08:40.426Z,100.0
2018-09-04T05:09:41.933Z,100.0
2018-09-04T05:10:43.444Z,100.0
2018-09-04T05:11:45.095Z,100.0
2018-09-04T05:12:46.570Z,100.0
2018-09-04T05:13:48.008Z,100.0
2018-09-04T05:14:49.648Z,100.0
2018-09-04T05:15:51.074Z,100.0
2018-09-04T05:16:52.737Z,100.0
2018-09-04T05:17:54.360Z,100.0
2018-09-04T05:18:55.815Z,100.0
2018-09-04T05:19:57.282Z,100.0
2018-09-04T05:20:58.897Z,100.0
2018-09-04T05:22:00.325Z,100.0
2018-09-04T05:23:01.992Z,100.0
2018-09-04T05:24:03.444Z,100.0
2018-09-04T05:25:05.046Z,100.0
2018-09-04T05:26:06.528Z,100.0
2018-09-04T05:27:08.132Z,100.0
2018-09-04T05:28:09.592Z,100.0
2018-09-04T05:29:11.218Z,100.0
2018-09-04T05:30:12.676Z,100.0
2018-09-04T05:31:14.178Z,100.0
2018-09-04T05:32:15.772Z,100.0
2018-09-04T05:33:17.237Z,100.0
2018-09-04T05:34:18.678Z,100.0
2018-09-04T05:35:20.286Z,100.0
2018-09-04T05:36:21.725Z,100.0
2018-09-04T05:37:23.173Z,100.0
2018-09-04T05:38:24.809Z,100.0
2018-09-04T05:39:26.254Z,100.0
2018-09-04T05:40:27.719Z,100.0
2018-09-04T05:41:29.345Z,100.0
2018-09-04T05:42:30.768Z,100.0
2018-09-04T05:43:32.434Z,100.0
2018-09-04T05:44:33.818Z,100.0
2018-09-04T05:45:35.323Z,100.0
2018-09-04T05:46:36.807Z,100.0
2018-09-04T05:47:38.389Z,100.0
2018-09-04T05:48:39.872Z,100.0
2018-09-04T05:49:41.559Z,100.0
2018-09-04T05:50:43.061Z,100.0
2018-09-04T05:51:44.612Z,100.0
2018-09-04T05:52:46.062Z,100.0
2018-09-04T05:53:47.646Z,100.0
2018-09-04T05:54:49.091Z,100.0
2018-09-04T05:55:50.747Z,100.0
2018-09-04T05:56:52.230Z,100.0
2018-09-04T05:57:53.868Z,100.0
2018-09-04T05:58:55.369Z,100.0
2018-09-04T05:59:57.016Z,100.0
2018-09-04T06:00:58.469Z,100.0
2018-09-04T06:01:59.971Z,100.0
2018-09-04T06:03:01.432Z,100.0
2018-09-04T06:04:03.124Z,100.0
2018-09-04T06:05:04.570Z,100.0
2018-09-04T06:06:06.196Z,100.0
2018-09-04T06:07:07.681Z,100.0
2018-09-04T06:08:09.146Z,100.0
2018-09-04T06:09:10.688Z,100.0
2018-09-04T06:10:12.164Z,100.0
2018-09-04T06:11:13.596Z,100.0
2018-09-04T06:12:15.383Z,100.0
2018-09-04T06:13:17.545Z,100.0
2018-09-04T06:14:19.406Z,100.0
2018-09-04T06:15:21.239Z,100.0
2018-09-04T06:16:22.967Z,100.0
2018-09-04T06:17:24.426Z,100.0
2018-09-04T06:18:26.033Z,100.0
2018-09-04T06:19:27.504Z,100.0
2018-09-04T06:20:29.823Z,100.0
2018-09-04T06:21:31.293Z,100.0
2018-09-04T06:22:33.061Z,100.0
2018-09-04T06:23:34.511Z,100.0
2018-09-04T06:24:36.682Z,100.0
2018-09-04T06:25:38.159Z,100.0
2018-09-04T06:26:39.758Z,100.0
2018-09-04T06:27:41.177Z,100.0
2018-09-04T06:28:42.859Z,100.0
2018-09-04T06:29:44.326Z,100.0
2018-09-04T06:30:45.852Z,100.0
2018-09-04T06:31:47.290Z,100.0
2018-09-04T06:32:49.029Z,100.0
2018-09-04T06:33:50.550Z,100.0
2018-09-04T06:34:52.114Z,100.0
2018-09-04T06:35:53.533Z,100.0
2018-09-04T06:36:55.195Z,100.0
2018-09-04T06:37:56.610Z,100.0
2018-09-04T06:38:58.248Z,100.0
2018-09-04T06:39:59.654Z,100.0
2018-09-04T06:41:01.342Z,100.0
2018-09-04T06:42:02.756Z,100.0
2018-09-04T06:43:04.339Z,100.0
2018-09-04T06:44:06.091Z,100.0
2018-09-04T06:45:07.503Z,100.0
2018-09-04T06:46:08.924Z,100.0
2018-09-04T06:47:10.336Z,100.0
2018-09-04T06:48:12.032Z,100.0
2018-09-04T06:49:13.442Z,100.0
2018-09-04T06:50:15.228Z,100.0
2018-09-04T06:51:16.765Z,100.0
2018-09-04T06:52:18.177Z,100.0
2018-09-04T06:53:19.858Z,100.0
2018-09-04T06:54:21.263Z,100.0
2018-09-04T06:55:22.934Z,100.0
2018-09-04T06:56:24.342Z,100.0
2018-09-04T06:57:26.014Z,100.0
2018-09-04T06:58:27.436Z,100.0
2018-09-04T06:59:29.105Z,100.0
2018-09-04T07:00:31.272Z,100.0
2018-09-04T07:01:34.386Z,100.0
2018-09-04T07:02:35.783Z,100.0
2018-09-04T07:03:37.399Z,100.0
2018-09-04T07:04:38.833Z,100.0
2018-09-04T07:05:40.357Z,100.0
2018-09-04T07:06:41.855Z,100.0
2018-09-04T07:07:46.278Z,100.0
2018-09-04T07:08:47.744Z,100.0
2018-09-04T07:09:49.387Z,100.0
2018-09-04T07:10:50.856Z,100.0
2018-09-04T07:11:52.540Z,100.0
2018-09-04T07:12:54.040Z,100.0
2018-09-04T07:13:55.544Z,100.0
2018-09-04T07:14:57.452Z,100.0
2018-09-04T07:15:59.505Z,100.0
2018-09-04T07:17:01.018Z,100.0
2018-09-04T07:18:02.634Z,100.0
2018-09-04T07:19:04.896Z,100.0
2018-09-04T07:20:06.492Z,100.0
2018-09-04T07:21:07.988Z,100.0
2018-09-04T07:22:09.421Z,100.0
2018-09-04T07:23:11.045Z,100.0
2018-09-04T07:24:12.996Z,100.0
2018-09-04T07:25:14.492Z,100.0
2018-09-04T07:26:16.152Z,100.0
2018-09-04T07:27:17.625Z,100.0
2018-09-04T07:28:19.099Z,100.0
2018-09-04T07:29:20.700Z,100.0
2018-09-04T07:30:22.121Z,100.0
2018-09-04T07:31:23.756Z,100.0
2018-09-04T07:32:25.244Z,100.0
2018-09-04T07:33:26.700Z,100.0
2018-09-04T07:34:28.305Z,100.0
2018-09-04T07:35:29.774Z,100.0
2018-09-04T07:36:31.264Z,100.0
2018-09-04T07:37:32.821Z,100.0
2018-09-04T07:38:34.292Z,100.0
2018-09-04T07:39:35.779Z,100.0
2018-09-04T07:40:38.332Z,100.0
2018-09-04T07:41:39.826Z,100.0
2018-09-04T07:42:41.283Z,100.0
2018-09-04T07:43:42.938Z,100.0
2018-09-04T07:44:44.409Z,100.0
2018-09-04T07:45:45.909Z,100.0
2018-09-04T07:46:47.416Z,100.0
2018-09-04T07:47:49.290Z,100.0
2018-09-04T07:48:50.760Z,100.0
2018-09-04T07:49:52.427Z,100.0
2018-09-04T07:50:53.896Z,100.0
2018-09-04T07:51:55.374Z,100.0
2018-09-04T07:52:56.922Z,100.0
2018-09-04T07:53:58.407Z,100.0
2018-09-04T07:54:59.827Z,100.0
2018-09-04T07:56:02.797Z,100.0
2018-09-04T07:57:04.262Z,100.0
2018-09-04T07:58:05.839Z,100.0
2018-09-04T07:59:07.382Z,100.0
2018-09-04T08:00:08.911Z,100.0
2018-09-04T08:01:10.437Z,100.0
2018-09-04T08:02:11.879Z,100.0
2018-09-04T08:03:13.332Z,100.0
2018-09-04T08:04:14.979Z,100.0
2018-09-04T08:05:16.431Z,100.0
2018-09-04T08:06:17.902Z,100.0
2018-09-04T08:07:19.456Z,100.0
2018-09-04T08:08:20.979Z,100.0
2018-09-04T08:09:22.451Z,100.0
2018-09-04T08:10:23.943Z,100.0
2018-09-04T08:11:25.469Z,100.0
2018-09-04T08:12:27.081Z,100.0
2018-09-04T08:13:28.537Z,100.0
2018-09-04T08:14:29.985Z,100.0
2018-09-04T08:15:31.769Z,100.0
2018-09-04T08:16:33.179Z,100.0
2018-09-04T08:17:34.660Z,100.0
2018-09-04T08:18:36.194Z,100.0
2018-09-04T08:19:37.696Z,100.0
2018-09-04T08:20:39.235Z,100.0
2018-09-04T08:21:42.361Z,100.0
2018-09-04T08:22:43.800Z,100.0
2018-09-04T08:23:45.319Z,100.0
2018-09-04T08:24:46.851Z,100.0
2018-09-04T08:25:48.290Z,100.0
2018-09-04T08:26:49.972Z,100.0
2018-09-04T08:27:51.414Z,100.0
2018-09-04T08:28:53.127Z,100.0
2018-09-04T08:29:54.624Z,100.0
2018-09-04T08:30:56.417Z,100.0
2018-09-04T08:31:57.877Z,100.0
2018-09-04T08:32:59.513Z,100.0
2018-09-04T08:34:00.875Z,100.0
2018-09-04T08:35:02.434Z,100.0
2018-09-04T08:36:03.873Z,100.0
2018-09-04T08:37:05.312Z,100.0
2018-09-04T08:38:06.740Z,100.0
2018-09-04T08:39:08.331Z,100.0
2018-09-04T08:40:09.813Z,100.0
2018-09-04T08:41:11.229Z,100.0
2018-09-04T08:42:12.736Z,100.0
2018-09-04T08:43:14.597Z,100.0
2018-09-04T08:44:16.123Z,100.0
2018-09-04T08:45:17.668Z,100.0
2018-09-04T08:46:19.114Z,100.0
2018-09-04T08:47:20.648Z,100.0
2018-09-04T08:48:22.206Z,100.0
2018-09-04T08:49:23.674Z,100.0
2018-09-04T08:50:25.388Z,100.0
2018-09-04T08:51:26.772Z,100.0
2018-09-04T08:52:28.362Z,100.0
2018-09-04T08:53:29.891Z,100.0
2018-09-04T08:54:31.263Z,100.0
2018-09-04T08:55:32.917Z,100.0
2018-09-04T08:56:34.382Z,100.0
2018-09-04T08:57:35.861Z,100.0
2018-09-04T08:58:37.549Z,100.0
2018-09-04T08:59:38.895Z,100.0
2018-09-04T09:00:40.414Z,100.0
2018-09-04T09:01:42.024Z,100.0
2018-09-04T09:02:43.648Z,100.0
2018-09-04T09:03:45.132Z,100.0
2018-09-04T09:04:46.524Z,100.0
2018-09-04T09:05:48.165Z,100.0
2018-09-04T09:06:49.600Z,100.0
2018-09-04T09:07:51.234Z,100.0
2018-09-04T09:08:52.827Z,100.0
2018-09-04T09:09:54.351Z,100.0
2018-09-04T09:10:55.778Z,100.0
2018-09-04T09:11:57.392Z,100.0
2018-09-04T09:12:58.883Z,100.0
2018-09-04T09:14:00.497Z,100.0
2018-09-04T09:15:02.004Z,100.0
2018-09-04T09:16:03.577Z,100.0
2018-09-04T09:17:05.077Z,100.0
2018-09-04T09:18:06.599Z,100.0
2018-09-04T09:19:09.206Z,100.0
2018-09-04T09:20:10.562Z,100.0
2018-09-04T09:21:12.033Z,100.0
2018-09-04T09:22:13.667Z,100.0
2018-09-04T09:23:15.151Z,100.0
2018-09-04T09:24:16.701Z,100.0
2018-09-04T09:25:18.186Z,100.0
2018-09-04T09:26:19.667Z,100.0
2018-09-04T09:27:21.259Z,100.0
2018-09-04T09:28:22.840Z,100.0
2018-09-04T09:29:24.297Z,100.0
2018-09-04T09:30:26.180Z,100.0
2018-09-04T09:31:27.635Z,100.0
2018-09-04T09:32:29.098Z,100.0
2018-09-04T09:33:30.766Z,100.0
2018-09-04T09:34:32.237Z,100.0
2018-09-04T09:35:33.805Z,100.0
2018-09-04T09:36:35.987Z,100.0
2018-09-04T09:37:37.578Z,100.0
2018-09-04T09:38:39.042Z,100.0
2018-09-04T09:39:40.512Z,100.0
2018-09-04T09:40:42.011Z,100.0
2018-09-04T09:41:43.520Z,100.0
2018-09-04T09:42:45.340Z,100.0
2018-09-04T09:43:47.009Z,99.9
2018-09-04T09:44:48.473Z,99.0
2018-09-04T09:45:50.098Z,99.2
2018-09-04T09:46:51.510Z,98.0
2018-09-04T09:47:53.136Z,98.2
2018-09-04T09:48:54.628Z,97.7
2018-09-04T09:49:56.101Z,96.3
2018-09-04T09:50:57.680Z,96.6
2018-09-04T09:51:59.135Z,96.3
2018-09-04T09:53:00.718Z,95.7
2018-09-04T09:54:02.210Z,95.8
2018-09-04T09:55:03.626Z,94.7
2018-09-04T09:56:05.418Z,94.3
2018-09-04T09:57:06.897Z,91.2
2018-09-04T09:58:08.351Z,91.9
2018-09-04T09:59:09.817Z,92.8
2018-09-04T10:00:11.553Z,94.4
2018-09-04T10:01:13.095Z,95.3
2018-09-04T10:02:14.717Z,96.2
2018-09-04T10:03:16.201Z,96.7
2018-09-04T10:04:17.918Z,95.5
2018-09-04T10:05:19.491Z,93.6
2018-09-04T10:06:21.496Z,92.9
2018-09-04T10:07:22.933Z,92.8
2018-09-04T10:08:24.574Z,93.1
2018-09-04T10:09:26.021Z,93.4
2018-09-04T10:10:27.726Z,91.8
2018-09-04T10:11:29.178Z,90.8
2018-09-04T10:12:30.826Z,91.6
2018-09-04T10:13:32.405Z,92.3
2018-09-04T10:14:33.861Z,92.7
2018-09-04T10:15:36.338Z,94.3
2018-09-04T10:16:37.794Z,95.6
2018-09-04T10:17:39.249Z,95.3
2018-09-04T10:18:40.871Z,94.8
2018-09-04T10:19:42.371Z,90.8
2018-09-04T10:20:44.623Z,90.8
2018-09-04T10:21:46.209Z,90.0
2018-09-04T10:22:47.647Z,90.9
2018-09-04T10:23:49.089Z,91.0
2018-09-04T10:24:50.732Z,90.7
2018-09-04T10:25:52.210Z,91.7
2018-09-04T10:26:54.224Z,91.8
2018-09-04T10:27:56.030Z,90.9
2018-09-04T10:28:58.639Z,90.7
2018-09-04T10:30:00.146Z,90.8
2018-09-04T10:31:01.716Z,90.0
2018-09-04T10:32:03.243Z,88.2
2018-09-04T10:33:04.753Z,87.8
2018-09-04T10:34:06.216Z,88.3
2018-09-04T10:35:07.719Z,86.6
2018-09-04T10:36:09.244Z,85.9
2018-09-04T10:37:10.658Z,86.2
2018-09-04T10:38:12.102Z,86.8
2018-09-04T10:39:14.036Z,86.9
2018-09-04T10:40:15.470Z,86.9
2018-09-04T10:41:17.048Z,87.8
2018-09-04T10:42:18.489Z,88.1
2018-09-04T10:43:20.139Z,87.9
2018-09-04T10:44:21.727Z,86.6
2018-09-04T10:45:23.277Z,86.5
2018-09-04T10:46:24.765Z,86.3
2018-09-04T10:47:26.351Z,86.4
2018-09-04T10:48:28.201Z,86.6
2018-09-04T10:49:30.223Z,86.7
2018-09-04T10:50:31.681Z,86.0
2018-09-04T10:51:33.337Z,86.7
2018-09-04T10:52:34.824Z,87.1
2018-09-04T10:53:36.398Z,86.5
2018-09-04T10:54:37.858Z,87.1
2018-09-04T10:55:39.370Z,87.8
2018-09-04T10:56:40.770Z,86.2
2018-09-04T10:57:42.265Z,84.6
2018-09-04T10:58:43.826Z,84.9
2018-09-04T10:59:45.334Z,85.9
2018-09-04T11:00:46.835Z,87.4
2018-09-04T11:01:48.322Z,86.9
2018-09-04T11:02:49.777Z,87.0
2018-09-04T11:03:51.199Z,87.9
2018-09-04T11:04:52.673Z,87.0
2018-09-04T11:05:54.087Z,84.9
2018-09-04T11:06:55.538Z,85.1
2018-09-04T11:07:57.160Z,85.2
2018-09-04T11:08:58.723Z,84.8
2018-09-04T11:10:00.246Z,83.1
2018-09-04T11:11:01.705Z,83.1
2018-09-04T11:12:03.211Z,83.8
2018-09-04T11:13:04.818Z,83.6
2018-09-04T11:14:06.254Z,81.2
2018-09-04T11:15:08.000Z,76.9
2018-09-04T11:16:09.571Z,77.3
2018-09-04T11:17:11.027Z,77.3
2018-09-04T11:18:12.456Z,77.9
2018-09-04T11:19:14.073Z,78.3
2018-09-04T11:20:15.585Z,79.0
2018-09-04T11:21:17.049Z,80.0
2018-09-04T11:22:18.594Z,81.2
2018-09-04T11:23:20.039Z,83.2
2018-09-04T11:24:21.642Z,82.6
2018-09-04T11:25:23.082Z,82.4
2018-09-04T11:26:24.758Z,81.9
2018-09-04T11:27:26.172Z,81.4
2018-09-04T11:28:27.825Z,82.6
2018-09-04T11:29:29.275Z,83.9
2018-09-04T11:30:30.907Z,85.2
2018-09-04T11:31:32.356Z,85.9
2018-09-04T11:32:34.057Z,83.8
2018-09-04T11:33:35.615Z,83.2
2018-09-04T11:34:37.164Z,85.0
2018-09-04T11:35:38.656Z,85.3
2018-09-04T11:36:40.093Z,82.5
2018-09-04T11:37:42.058Z,79.3
2018-09-04T11:38:43.538Z,79.7
2018-09-04T11:39:45.005Z,82.2
2018-09-04T11:40:46.608Z,85.3
2018-09-04T11:41:48.011Z,86.9
2018-09-04T11:42:49.490Z,85.7
2018-09-04T11:43:51.084Z,85.0
2018-09-04T11:44:52.534Z,85.6
2018-09-04T11:45:54.238Z,87.8
2018-09-04T11:46:56.174Z,89.5
2018-09-04T11:47:58.259Z,90.4
2018-09-04T11:48:59.744Z,89.7
2018-09-04T11:50:01.429Z,91.1
2018-09-04T11:51:02.936Z,91.7
2018-09-04T11:52:04.476Z,92.2
2018-09-04T11:53:05.936Z,91.3
2018-09-04T11:54:07.562Z,92.5
2018-09-04T11:55:09.055Z,93.5
2018-09-04T11:56:10.668Z,95.8
2018-09-04T11:57:12.231Z,96.2
2018-09-04T11:58:13.700Z,96.4
2018-09-04T11:59:15.166Z,96.3
2018-09-04T12:00:16.810Z,97.1
2018-09-04T12:01:18.364Z,95.9
2018-09-04T12:02:19.908Z,96.0
2018-09-04T12:03:21.337Z,94.0
2018-09-04T12:04:22.976Z,90.0
2018-09-04T12:05:24.483Z,90.6
2018-09-04T12:06:26.083Z,92.7
2018-09-04T12:07:27.527Z,95.4
2018-09-04T12:08:29.158Z,97.0
2018-09-04T12:09:30.681Z,97.3
2018-09-04T12:10:32.327Z,98.1
2018-09-04T12:11:33.882Z,97.9
2018-09-04T12:12:35.549Z,98.7
2018-09-04T12:13:37.459Z,95.9
2018-09-04T12:14:39.011Z,94.1
2018-09-04T12:15:40.451Z,92.9
2018-09-04T12:16:42.133Z,95.3
2018-09-04T12:17:43.546Z,96.0
2018-09-04T12:18:45.234Z,96.1
2018-09-04T12:19:46.645Z,96.7
2018-09-04T12:20:48.144Z,98.9
2018-09-04T12:21:49.762Z,98.3
2018-09-04T12:22:51.185Z,98.4
2018-09-04T12:23:52.627Z,95.4
2018-09-04T12:24:54.290Z,93.6
2018-09-04T12:25:55.753Z,86.8
2018-09-04T12:26:57.204Z,85.0
2018-09-04T12:27:58.753Z,85.5
2018-09-04T12:29:00.238Z,85.8
2018-09-04T12:30:02.222Z,86.1
2018-09-04T12:31:03.726Z,87.2
2018-09-04T12:32:05.310Z,87.4
2018-09-04T12:33:06.745Z,86.0
2018-09-04T12:34:08.219Z,86.4
2018-09-04T12:35:09.660Z,82.7
2018-09-04T12:36:11.504Z,82.9
2018-09-04T12:37:13.156Z,84.9
2018-09-04T12:38:14.615Z,85.7
2018-09-04T12:39:16.098Z,85.7
2018-09-04T12:40:17.693Z,87.7
2018-09-04T12:41:19.156Z,86.4
2018-09-04T12:42:20.608Z,83.0
2018-09-04T12:43:22.185Z,82.3
2018-09-04T12:44:23.783Z,80.2
2018-09-04T12:45:25.264Z,80.0
2018-09-04T12:46:26.712Z,82.5
2018-09-04T12:47:28.176Z,85.6
2018-09-04T12:48:29.866Z,86.3
2018-09-04T12:49:31.273Z,84.5
2018-09-04T12:50:32.729Z,86.7
2018-09-04T12:51:34.314Z,88.6
2018-09-04T12:52:35.750Z,89.6
2018-09-04T12:53:37.192Z,87.4
2018-09-04T12:54:38.699Z,86.4
2018-09-04T12:55:40.130Z,87.4
2018-09-04T12:56:41.655Z,88.6
2018-09-04T12:57:43.259Z,88.8
2018-09-04T12:58:44.687Z,90.8
2018-09-04T12:59:46.152Z,92.2
2018-09-04T13:00:47.896Z,94.0
2018-09-04T13:01:49.728Z,93.5
2018-09-04T13:02:51.195Z,92.2
2018-09-04T13:03:52.647Z,90.7
2018-09-04T13:04:54.148Z,91.2
2018-09-04T13:05:55.807Z,91.0
2018-09-04T13:06:57.245Z,84.1
2018-09-04T13:07:58.861Z,81.3
2018-09-04T13:09:00.357Z,83.2
2018-09-04T13:10:01.973Z,83.7
2018-09-04T13:11:03.456Z,81.4
2018-09-04T13:12:05.073Z,79.7
2018-09-04T13:13:06.556Z,81.5
2018-09-04T13:14:08.287Z,83.0
2018-09-04T13:15:09.752Z,85.3
2018-09-04T13:16:11.428Z,87.4
2018-09-04T13:17:12.946Z,89.7
2018-09-04T13:18:14.555Z,90.2
2018-09-04T13:19:16.102Z,88.8
2018-09-04T13:20:17.805Z,82.9